Time;durP1;ratioP1;P1;durP2;ratioP2;P2;SDS_P1;SDS_P2;PMS_P1;PMS_P2;Temp;Humidity;BMP_temperature;BMP_pressure;BME280_temperature;BME280_humidity;BME280_pressure;Samples;Min_cycle;Max_cycle;Signal;HPM_P1;HPM_P2
2023/01/22 00:02:19;;;;;;;17.73;9.07;;;;;;;7.76;47.75;100499.97;5099962;28;20054;-81
2023/01/22 00:05:04;;;;;;;18.58;11.00;;;;;;;7.79;47.77;100494.75;5102104;28;20047;-80
2023/01/22 00:07:49;;;;;;;21.90;10.55;;;;;;;7.67;48.15;100500.66;5095777;28;20047;-80
2023/01/22 00:10:34;;;;;;;14.25;8.30;;;;;;;7.76;46.96;100508.09;5113439;28;20054;-80
2023/01/22 00:13:20;;;;;;;13.25;8.25;;;;;;;7.74;48.08;100511.91;5103576;28;20047;-80
2023/01/22 00:16:05;;;;;;;22.25;9.57;;;;;;;7.66;47.63;100509.09;5106968;28;20051;-81
2023/01/22 00:18:50;;;;;;;16.63;10.82;;;;;;;7.77;47.11;100515.13;5104416;28;20054;-80
2023/01/22 00:21:34;;;;;;;16.77;9.95;;;;;;;7.64;47.80;100514.00;5096621;28;20047;-81
2023/01/22 00:24:19;;;;;;;16.80;9.63;;;;;;;7.63;47.06;100513.19;5114313;28;20047;-81
2023/01/22 00:27:04;;;;;;;17.42;10.40;;;;;;;7.50;47.08;100508.59;5104315;28;20098;-80
2023/01/22 00:29:49;;;;;;;17.13;9.95;;;;;;;7.36;46.45;100513.19;5109680;28;20055;-81
2023/01/22 00:32:34;;;;;;;12.30;7.05;;;;;;;7.58;46.51;100524.13;5117934;28;20046;-81
2023/01/22 00:35:19;;;;;;;11.93;7.95;;;;;;;7.82;45.98;100518.53;5105011;28;20055;-80
2023/01/22 00:38:05;;;;;;;15.33;8.83;;;;;;;7.94;45.99;100524.22;5103284;28;20046;-81
2023/01/22 00:40:50;;;;;;;13.35;7.93;;;;;;;8.05;45.13;100525.63;5107230;28;20284;-80
2023/01/22 00:43:37;;;;;;;16.57;8.83;;;;;;;8.01;45.13;100526.53;5112577;28;20050;-81
2023/01/22 00:46:22;;;;;;;15.63;9.25;;;;;;;7.79;45.71;100534.53;5106491;28;20288;-80
2023/01/22 00:49:07;;;;;;;16.05;8.95;;;;;;;7.81;45.40;100535.06;5105893;28;20442;-80
2023/01/22 00:51:51;;;;;;;20.58;9.70;;;;;;;7.84;46.16;100529.03;5109222;28;20043;-80
2023/01/22 00:54:36;;;;;;;10.70;6.55;;;;;;;7.88;45.27;100540.84;5116197;28;20051;-80
2023/01/22 00:57:21;;;;;;;26.27;8.60;;;;;;;8.00;44.97;100549.28;5116077;28;20054;-81
2023/01/22 01:00:07;;;;;;;10.57;6.45;;;;;;;8.01;46.13;100537.34;5115361;28;20047;-80
2023/01/22 01:06:00;;;;;;;14.80;8.38;;;;;;;7.73;48.24;100545.47;5099057;28;20113;-80
2023/01/22 01:08:46;;;;;;;15.95;8.18;;;;;;;7.96;48.69;100556.41;5106167;28;20050;-80
2023/01/22 01:11:31;;;;;;;16.13;8.27;;;;;;;7.89;47.94;100559.50;5120249;27;20066;-82
2023/01/22 01:14:16;;;;;;;15.05;7.22;;;;;;;7.85;47.63;100550.41;5118695;27;20521;-82
2023/01/22 01:17:00;;;;;;;11.35;7.07;;;;;;;7.81;47.15;100552.09;5101731;28;20403;-83
2023/01/22 01:19:45;;;;;;;10.93;6.53;;;;;;;7.66;46.65;100555.09;5102657;28;20051;-82
2023/01/22 01:22:29;;;;;;;10.63;5.72;;;;;;;7.73;48.25;100555.50;5102019;28;20051;-82
2023/01/22 01:25:14;;;;;;;20.00;5.68;;;;;;;7.71;47.59;100557.72;5097467;28;20047;-82
2023/01/22 01:28:00;;;;;;;9.77;5.93;;;;;;;7.75;47.71;100564.13;5103073;28;20039;-81
2023/01/22 01:30:45;;;;;;;6.35;4.30;;;;;;;7.48;47.30;100548.66;5108430;28;20055;-82
2023/01/22 01:33:30;;;;;;;7.82;4.50;;;;;;;7.56;46.32;100555.28;5111035;28;20418;-81
2023/01/22 01:36:17;;;;;;;15.60;6.57;;;;;;;7.83;47.28;100560.72;5108223;28;20050;-83
2023/01/22 01:39:02;;;;;;;10.00;5.40;;;;;;;7.68;47.29;100569.13;5111046;28;20053;-82
2023/01/22 01:41:47;;;;;;;10.13;5.65;;;;;;;7.64;47.17;100571.63;5111090;28;20051;-83
2023/01/22 01:44:32;;;;;;;9.00;5.40;;;;;;;7.81;46.89;100565.63;5114125;28;20047;-82
2023/01/22 01:47:32;;;;;;;6.50;4.40;;;;;;;7.95;46.50;100569.13;5095944;28;20051;-82
2023/01/22 01:50:20;;;;;;;10.07;5.88;;;;;;;7.67;46.59;100565.59;5107309;28;20043;-81
2023/01/22 01:53:05;;;;;;;7.50;5.22;;;;;;;7.81;45.93;100572.94;5113797;28;20046;-81
2023/01/22 01:55:51;;;;;;;7.93;4.82;;;;;;;7.58;44.63;100575.53;5087031;28;20436;-81
2023/01/22 01:58:37;;;;;;;7.95;4.95;;;;;;;7.77;45.30;100569.25;5083604;28;20062;-82
2023/01/22 02:01:25;;;;;;;11.20;5.57;;;;;;;7.86;45.34;100575.56;5099437;28;20043;-82
2023/01/22 02:04:09;;;;;;;10.30;5.85;;;;;;;7.99;45.43;100577.44;5083883;28;20051;-82
2023/01/22 02:06:54;;;;;;;5.68;4.47;;;;;;;7.95;47.66;100568.34;5098878;28;20051;-81
2023/01/22 02:09:39;;;;;;;8.65;4.50;;;;;;;8.27;47.01;100570.94;5110679;28;20058;-81
2023/01/22 02:12:25;;;;;;;7.50;4.45;;;;;;;7.80;48.28;100572.16;5102613;28;20055;-82
2023/01/22 02:15:10;;;;;;;10.27;5.88;;;;;;;7.66;48.76;100579.47;5118868;28;20129;-81
2023/01/22 02:17:55;;;;;;;7.30;4.85;;;;;;;7.61;49.53;100577.66;5105355;28;20039;-81
2023/01/22 02:20:50;;;;;;;7.00;4.55;;;;;;;7.48;49.83;100574.91;5117918;28;20054;-81
2023/01/22 02:23:34;;;;;;;7.15;4.60;;;;;;;7.48;49.44;100572.19;5087182;28;20048;-82
2023/01/22 02:26:21;;;;;;;10.32;6.00;;;;;;;7.52;48.39;100576.72;5098878;28;20063;-82
2023/01/22 02:29:08;;;;;;;7.72;4.68;;;;;;;7.59;48.12;100579.84;5085529;28;20051;-82
2023/01/22 02:31:54;;;;;;;8.23;5.47;;;;;;;7.63;47.95;100580.84;5100670;28;20046;-82
2023/01/22 02:34:39;;;;;;;6.47;4.22;;;;;;;7.70;47.25;100578.56;5119948;28;20062;-82
2023/01/22 02:37:24;;;;;;;6.47;4.55;;;;;;;7.42;47.07;100576.09;5120901;28;20125;-82
2023/01/22 02:40:10;;;;;;;12.70;6.75;;;;;;;7.00;48.94;100580.59;5120583;28;20051;-82
2023/01/22 02:42:56;;;;;;;7.75;4.70;;;;;;;7.36;48.78;100580.81;5114270;28;20043;-81
2023/01/22 02:45:40;;;;;;;11.88;5.97;;;;;;;7.38;47.89;100580.50;5120044;28;20410;-82
2023/01/22 02:48:25;;;;;;;9.88;5.03;;;;;;;6.71;49.96;100577.22;5105903;28;20051;-82
2023/01/22 02:51:10;;;;;;;9.38;5.00;;;;;;;6.85;49.95;100573.53;5117289;28;20518;-81
2023/01/22 02:53:57;;;;;;;7.25;4.43;;;;;;;6.38;52.16;100582.56;5111717;28;20042;-82
2023/01/22 02:56:43;;;;;;;10.13;6.25;;;;;;;6.75;50.71;100583.69;5114720;28;20051;-82
2023/01/22 02:59:28;;;;;;;9.60;5.50;;;;;;;7.10;52.25;100585.03;5106710;28;20058;-81
2023/01/22 03:02:13;;;;;;;8.00;5.13;;;;;;;7.28;51.80;100589.59;5106161;28;20047;-81
2023/01/22 03:05:03;;;;;;;9.85;6.07;;;;;;;7.55;51.28;100586.97;5091664;28;20055;-81
2023/01/22 03:07:48;;;;;;;9.15;6.15;;;;;;;7.49;51.40;100590.03;5105456;28;20126;-81
2023/01/22 03:10:33;;;;;;;12.90;7.28;;;;;;;7.52;49.91;100592.13;5121136;28;20051;-81
2023/01/22 03:22:35;;;;;;;10.30;6.07;;;;;;;7.36;51.44;100591.63;5101993;28;20051;-82
2023/01/22 03:25:20;;;;;;;6.75;4.60;;;;;;;7.27;50.29;100586.06;5099466;28;20047;-81
2023/01/22 03:28:15;;;;;;;;;;;;;;;7.40;50.07;100587.22;5118422;28;20544;-81
2023/01/22 03:31:03;;;;;;;9.10;5.95;;;;;;;7.31;49.27;100586.31;5096342;28;19911;-81
2023/01/22 03:33:49;;;;;;;15.70;6.63;;;;;;;7.31;50.41;100583.59;5087334;28;20043;-81
2023/01/22 03:36:34;;;;;;;9.68;5.00;;;;;;;7.38;50.37;100581.28;5091222;28;20514;-81
2023/01/22 03:39:22;;;;;;;12.20;6.65;;;;;;;7.35;50.11;100584.59;5103368;28;20055;-81
2023/01/22 03:42:07;;;;;;;5.15;4.10;;;;;;;7.34;51.36;100585.69;5112173;28;20046;-82
2023/01/22 03:44:53;;;;;;;9.38;6.20;;;;;;;7.39;51.35;100585.59;5110192;28;20050;-81
2023/01/22 03:47:38;;;;;;;7.95;4.55;;;;;;;7.38;50.43;100592.13;5116414;28;20054;-81
2023/01/22 03:50:36;;;;;;;7.95;5.07;;;;;;;7.33;50.00;100594.91;5117033;28;20414;-81
2023/01/22 03:53:21;;;;;;;9.38;5.20;;;;;;;7.23;49.50;100595.06;5108718;28;20050;-81
2023/01/22 03:56:12;;;;;;;9.43;5.25;;;;;;;7.32;49.81;100609.53;5083839;28;20426;-80
2023/01/22 03:58:57;;;;;;;10.75;6.28;;;;;;;7.44;51.40;100612.56;5098230;28;20037;-81
2023/01/22 04:01:42;;;;;;;6.85;3.85;;;;;;;7.29;51.78;100612.84;5112836;28;20051;-80
2023/01/22 04:04:26;;;;;;;8.77;6.38;;;;;;;7.28;50.50;100609.31;5105429;28;20047;-80
2023/01/22 04:07:11;;;;;;;6.60;3.72;;;;;;;6.97;50.17;100610.09;5116009;28;20506;-81
2023/01/22 04:09:57;;;;;;;11.02;5.20;;;;;;;7.20;51.27;100620.00;5116778;28;20066;-81
2023/01/22 04:12:43;;;;;;;9.43;5.40;;;;;;;7.13;50.28;100619.56;5094515;28;20047;-80
2023/01/22 04:15:31;;;;;;;7.00;4.82;;;;;;;6.97;50.82;100613.59;5085690;28;20407;-80
2023/01/22 04:18:18;;;;;;;7.93;5.22;;;;;;;7.09;50.17;100618.56;5082845;28;20451;-81
2023/01/22 04:21:15;;;;;;;8.50;5.38;;;;;;;7.28;49.31;100620.13;5113701;28;20109;-81
2023/01/22 04:24:03;;;;;;;9.02;6.00;;;;;;;7.09;48.54;100621.28;5122387;28;20054;-81
2023/01/22 04:26:51;;;;;;;10.25;5.97;;;;;;;7.05;47.30;100623.75;5119380;28;20066;-81
2023/01/22 04:29:37;;;;;;;9.40;6.15;;;;;;;7.41;47.31;100623.19;5132522;28;20093;-81
2023/01/22 04:32:24;;;;;;;9.60;6.00;;;;;;;7.10;47.08;100626.38;5132538;28;20054;-81
2023/01/22 04:35:39;;;;;;;12.50;6.30;;;;;;;7.42;48.02;100625.59;5112621;28;20065;-82
2023/01/22 04:38:23;;;;;;;7.40;5.57;;;;;;;7.43;47.58;100627.19;5083910;28;20046;-82
2023/01/22 04:41:08;;;;;;;8.70;5.70;;;;;;;7.39;46.82;100631.59;5102608;28;20051;-82
2023/01/22 04:43:53;;;;;;;6.07;3.90;;;;;;;7.51;48.93;100639.25;5105591;28;20051;-81
2023/01/22 04:46:41;;;;;;;12.88;7.43;;;;;;;6.33;52.81;100649.34;5117568;28;20050;-82
2023/01/22 04:49:26;;;;;;;6.25;4.32;;;;;;;6.85;51.63;100643.78;5118262;28;20046;-82
2023/01/22 04:52:12;;;;;;;6.80;4.75;;;;;;;7.07;51.43;100655.88;5117320;28;20050;-82
2023/01/22 04:54:57;;;;;;;12.02;5.75;;;;;;;7.05;49.70;100647.28;5104788;28;20050;-83
2023/01/22 04:57:47;;;;;;;8.60;5.43;;;;;;;7.07;49.61;100655.88;5116168;28;20066;-82
2023/01/22 05:00:32;;;;;;;6.97;4.38;;;;;;;7.09;49.88;100662.63;5113531;28;20526;-81
2023/01/22 05:03:19;;;;;;;14.80;5.72;;;;;;;7.30;51.01;100668.53;5091736;28;20051;-81
2023/01/22 05:06:04;;;;;;;9.82;6.55;;;;;;;7.27;49.76;100669.91;5104342;28;20042;-81
2023/01/22 05:08:51;;;;;;;7.22;5.22;;;;;;;7.29;50.24;100680.44;5102300;28;20047;-81
2023/01/22 05:11:36;;;;;;;6.97;4.50;;;;;;;7.31;51.19;100675.56;5113320;28;20043;-81
2023/01/22 05:14:21;;;;;;;7.43;4.45;;;;;;;7.29;50.66;100672.34;5107326;28;20050;-81
2023/01/22 05:17:07;;;;;;;10.13;5.70;;;;;;;7.27;49.71;100678.03;5115735;28;20051;-81
2023/01/22 05:19:53;;;;;;;13.10;6.53;;;;;;;7.23;50.36;100681.63;5115692;28;20051;-81
2023/01/22 05:22:39;;;;;;;11.68;5.20;;;;;;;7.37;51.34;100682.47;5113488;28;20051;-81
2023/01/22 05:25:24;;;;;;;8.48;5.75;;;;;;;7.31;51.30;100673.63;5097940;28;20055;-81
2023/01/22 05:28:09;;;;;;;9.30;5.15;;;;;;;7.46;51.80;100678.03;5100413;28;20047;-82
2023/01/22 05:31:12;;;;;;;9.13;5.97;;;;;;;7.34;51.53;100687.69;5110845;28;20050;-81
2023/01/22 05:34:07;;;;;;;8.38;5.63;;;;;;;7.28;52.04;100686.94;5105250;28;20035;-81
2023/01/22 05:36:52;;;;;;;13.55;5.85;;;;;;;7.31;52.62;100684.44;5104769;28;20051;-82
2023/01/22 05:39:39;;;;;;;11.68;5.70;;;;;;;7.03;52.37;100698.13;5115567;28;20080;-81
2023/01/22 05:42:26;;;;;;;10.68;5.63;;;;;;;7.00;51.90;100696.03;5115572;28;20051;-81
2023/01/22 05:45:11;;;;;;;5.85;4.22;;;;;;;7.23;50.63;100700.53;5106015;28;20405;-81
2023/01/22 05:48:08;;;;;;;7.95;5.63;;;;;;;7.11;52.55;100711.78;5105268;28;20047;-81
2023/01/22 05:51:03;;;;;;;11.93;5.85;;;;;;;7.08;48.64;100706.97;5108595;28;20043;-82
2023/01/22 05:53:48;;;;;;;8.60;6.05;;;;;;;7.08;48.98;100711.56;5109146;28;20050;-82
2023/01/22 05:56:33;;;;;;;7.82;5.70;;;;;;;7.18;48.95;100719.56;5117882;28;20054;-81
2023/01/22 05:59:18;;;;;;;12.38;4.90;;;;;;;7.04;50.77;100721.38;5118375;28;20078;-81
2023/01/22 06:02:09;;;;;;;9.18;5.85;;;;;;;7.19;51.40;100730.09;5119434;28;20047;-81
2023/01/22 06:05:00;;;;;;;8.82;6.07;;;;;;;7.20;50.69;100730.88;5114445;28;20106;-81
2023/01/22 06:07:44;;;;;;;14.95;9.57;;;;;;;7.34;51.53;100737.16;5102617;28;20054;-80
2023/01/22 06:10:29;;;;;;;16.33;8.10;;;;;;;7.39;50.49;100744.41;5116047;28;20058;-81
2023/01/22 06:13:13;;;;;;;12.93;7.40;;;;;;;7.37;50.35;100744.69;5118986;28;20042;-80
2023/01/22 06:16:00;;;;;;;26.83;13.45;;;;;;;7.68;48.57;100753.94;5117981;28;20046;-80
2023/01/22 06:19:04;;;;;;;16.45;8.30;;;;;;;7.44;49.10;100764.06;5121386;28;20046;-79
2023/01/22 06:22:01;;;;;;;11.32;7.43;;;;;;;7.39;50.87;100761.44;5102363;28;20050;-80
2023/01/22 06:24:59;;;;;;;14.95;7.65;;;;;;;7.60;51.43;100773.56;5116459;28;20051;-80
2023/01/22 06:27:57;;;;;;;9.90;6.07;;;;;;;7.23;50.10;100785.19;5102815;28;20047;-80
2023/01/22 06:30:42;;;;;;;10.20;7.85;;;;;;;7.30;50.38;100780.22;5091959;28;20038;-81
2023/01/22 06:33:27;;;;;;;11.88;6.35;;;;;;;7.20;49.84;100776.84;5107711;28;20127;-81
2023/01/22 06:36:12;;;;;;;8.88;5.22;;;;;;;7.28;50.19;100781.59;5117977;28;20050;-81
2023/01/22 06:38:56;;;;;;;6.45;5.10;;;;;;;7.10;50.54;100783.22;5100977;28;20047;-81
2023/01/22 06:41:53;;;;;;;9.57;6.20;;;;;;;6.97;51.58;100780.38;5089849;28;20043;-82
2023/01/22 06:44:38;;;;;;;8.57;5.70;;;;;;;6.96;51.08;100790.41;5085601;28;20043;-82
2023/01/22 06:47:23;;;;;;;10.50;5.50;;;;;;;6.96;51.83;100784.22;5105921;28;20131;-81
2023/01/22 06:50:09;;;;;;;7.68;5.53;;;;;;;7.19;51.80;100791.47;5112883;28;20046;-80
2023/01/22 06:52:54;;;;;;;12.75;8.32;;;;;;;7.32;53.70;100796.97;5103034;28;20039;-80
2023/01/22 06:55:38;;;;;;;11.20;7.23;;;;;;;7.38;51.10;100799.59;5118145;28;20517;-81
2023/01/22 06:58:25;;;;;;;9.73;6.65;;;;;;;7.36;50.58;100805.31;5111506;28;20360;-80
2023/01/22 07:01:10;;;;;;;10.38;6.13;;;;;;;7.18;52.79;100812.28;5103737;28;20419;-80
2023/01/22 07:03:55;;;;;;;10.18;5.53;;;;;;;7.26;53.76;100806.22;5118098;28;20437;-80
2023/01/22 07:06:39;;;;;;;8.68;6.20;;;;;;;7.24;53.11;100813.03;5118108;28;20066;-80
2023/01/22 07:09:24;;;;;;;15.73;6.32;;;;;;;7.41;52.01;100812.56;5115826;28;20530;-80
2023/01/22 07:12:09;;;;;;;11.20;6.27;;;;;;;7.38;53.34;100797.69;5114883;28;20050;-81
2023/01/22 07:14:54;;;;;;;9.57;5.75;;;;;;;7.07;51.35;100796.47;5100345;28;20039;-80
2023/01/22 07:17:38;;;;;;;17.98;10.80;;;;;;;7.05;52.51;100790.59;5116693;28;20047;-80
2023/01/22 07:20:23;;;;;;;12.52;6.97;;;;;;;6.96;52.89;100800.44;5110038;28;20051;-81
2023/01/22 07:23:08;;;;;;;16.33;8.75;;;;;;;6.72;53.39;100798.53;5100163;28;20051;-81
2023/01/22 07:25:53;;;;;;;9.77;5.13;;;;;;;6.56;52.69;100801.66;5082069;28;20046;-78
2023/01/22 07:28:38;;;;;;;12.13;5.03;;;;;;;6.08;54.51;100796.19;5095855;28;20047;-77
2023/01/22 07:31:22;;;;;;;11.27;4.72;;;;;;;6.32;54.31;100812.44;5109779;28;20070;-77
2023/01/22 07:34:07;;;;;;;17.33;6.85;;;;;;;6.52;53.61;100817.66;5113418;28;20528;-78
2023/01/22 07:36:52;;;;;;;8.30;4.93;;;;;;;6.33;54.84;100825.66;5113108;28;20509;-78
2023/01/22 07:39:36;;;;;;;12.97;4.90;;;;;;;6.32;54.75;100825.94;5111264;28;20050;-77
2023/01/22 07:42:21;;;;;;;8.23;4.65;;;;;;;6.67;53.11;100828.31;5113209;28;20289;-77
2023/01/22 07:45:06;;;;;;;7.57;4.53;;;;;;;6.66;52.69;100842.91;5114331;28;20069;-78
2023/01/22 07:47:53;;;;;;;9.48;5.72;;;;;;;6.10;54.16;100839.09;5113011;28;20043;-77
2023/01/22 07:50:39;;;;;;;13.52;5.90;;;;;;;5.88;54.33;100843.03;5102648;28;20051;-78
2023/01/22 07:53:23;;;;;;;10.35;5.57;;;;;;;6.10;57.02;100850.69;5106211;28;20039;-77
2023/01/22 07:56:08;;;;;;;24.83;5.93;;;;;;;5.99;55.55;100852.66;5107948;28;20042;-78
2023/01/22 07:58:52;;;;;;;9.13;4.93;;;;;;;6.11;57.48;100856.91;5105282;28;20051;-77
2023/01/22 08:01:37;;;;;;;10.50;4.60;;;;;;;6.55;55.00;100856.81;5107781;28;20047;-77
2023/01/22 08:04:23;;;;;;;8.75;5.70;;;;;;;6.52;55.86;100860.88;5112736;28;20304;-77
2023/01/22 08:07:18;;;;;;;;;;;;;;;6.94;54.52;100876.41;5113051;28;20047;-77
2023/01/22 08:10:02;;;;;;;11.45;5.63;;;;;;;7.12;53.65;100877.53;5111836;28;19919;-77
2023/01/22 08:12:47;;;;;;;7.85;5.45;;;;;;;7.19;52.60;100880.72;5112765;28;20050;-77
2023/01/22 08:15:31;;;;;;;8.77;5.20;;;;;;;7.30;53.18;100887.63;5107648;28;20051;-77
2023/01/22 08:18:16;;;;;;;11.57;5.35;;;;;;;6.97;52.47;100889.31;5104654;28;20047;-79
2023/01/22 08:21:01;;;;;;;6.80;4.63;;;;;;;6.98;53.37;100899.06;5100024;28;20537;-78
2023/01/22 08:23:46;;;;;;;9.15;4.10;;;;;;;6.69;55.03;100887.47;5093460;28;20043;-78
2023/01/22 08:26:31;;;;;;;13.10;5.35;;;;;;;6.94;54.29;100895.31;5110300;28;20517;-77
2023/01/22 08:29:16;;;;;;;8.10;4.82;;;;;;;7.17;52.56;100899.91;5112600;28;20109;-77
2023/01/22 08:32:00;;;;;;;7.93;4.40;;;;;;;7.38;51.99;100894.28;5108649;28;20046;-77
2023/01/22 08:34:45;;;;;;;12.98;5.53;;;;;;;7.61;51.40;100896.97;5101278;28;20050;-78
2023/01/22 08:37:29;;;;;;;9.47;5.20;;;;;;;7.64;51.58;100890.97;5109006;28;20046;-78
2023/01/22 08:40:14;;;;;;;6.33;4.00;;;;;;;7.40;52.53;100898.31;5112339;28;20296;-78
2023/01/22 08:42:58;;;;;;;7.10;4.15;;;;;;;7.06;55.58;100898.41;5100080;28;20055;-77
2023/01/22 08:45:47;;;;;;;6.75;4.68;;;;;;;7.33;55.61;100903.25;5107725;28;20047;-77
2023/01/22 08:48:31;;;;;;;12.15;5.63;;;;;;;7.81;54.02;100909.41;5108847;28;20042;-78
2023/01/22 08:51:16;;;;;;;7.95;5.13;;;;;;;7.85;52.52;100915.84;5108199;28;20050;-77
2023/01/22 08:54:01;;;;;;;4.82;4.03;;;;;;;7.81;51.05;100912.13;5091773;28;20506;-78
2023/01/22 08:56:46;;;;;;;5.93;3.45;;;;;;;7.79;48.30;100908.09;5087972;28;20047;-78
2023/01/22 08:59:31;;;;;;;7.03;4.30;;;;;;;7.72;48.92;100916.56;5111602;28;20047;-77
2023/01/22 09:02:16;;;;;;;3.67;2.72;;;;;;;7.53;49.25;100911.13;5111802;28;20440;-77
2023/01/22 09:05:00;;;;;;;5.57;3.70;;;;;;;7.84;46.37;100916.94;5105921;28;20066;-78
2023/01/22 09:07:45;;;;;;;4.50;2.42;;;;;;;7.65;45.54;100921.53;5102897;28;20047;-78
2023/01/22 09:10:29;;;;;;;6.78;3.03;;;;;;;8.22;44.73;100934.00;5107053;28;20050;-77
2023/01/22 09:13:14;;;;;;;2.30;1.70;;;;;;;7.85;43.06;100937.50;5107374;28;20070;-77
2023/01/22 09:15:58;;;;;;;2.43;1.30;;;;;;;7.83;43.41;100938.88;5108772;28;20047;-77
2023/01/22 09:18:43;;;;;;;3.58;1.50;;;;;;;7.82;42.70;100938.09;5097878;28;20055;-77
2023/01/22 09:21:27;;;;;;;2.73;2.03;;;;;;;7.75;42.39;100943.06;5110407;28;20047;-77
2023/01/22 09:24:12;;;;;;;1.88;1.20;;;;;;;8.00;42.70;100944.63;5111720;28;20043;-77
2023/01/22 09:26:57;;;;;;;1.67;1.02;;;;;;;7.99;42.67;100953.81;5093863;28;20043;-77
2023/01/22 09:29:43;;;;;;;1.70;1.00;;;;;;;7.97;42.84;100951.44;5106428;28;20532;-78
2023/01/22 09:32:28;;;;;;;5.82;1.73;;;;;;;8.14;41.11;100950.91;5113247;28;20043;-77
2023/01/22 09:35:13;;;;;;;1.77;1.00;;;;;;;8.15;41.64;100955.22;5105083;28;20526;-77
2023/01/22 09:37:58;;;;;;;1.35;0.88;;;;;;;8.07;42.02;100951.28;5107561;28;20059;-77
2023/01/22 09:40:56;;;;;;;3.03;1.23;;;;;;;8.12;41.94;100953.13;5111094;28;20047;-78
2023/01/22 09:43:51;;;;;;;2.15;1.23;;;;;;;8.06;41.64;100960.50;5103654;28;20046;-76
2023/01/22 09:46:37;;;;;;;2.50;1.23;;;;;;;8.06;41.72;100960.50;5104761;28;20043;-77
2023/01/22 09:49:28;;;;;;;2.22;1.23;;;;;;;8.17;43.02;100953.03;5098854;28;20051;-76
2023/01/22 09:52:12;;;;;;;4.43;1.02;;;;;;;8.10;40.72;100956.13;5095342;28;20403;-85
2023/01/22 09:54:57;;;;;;;3.72;0.80;;;;;;;8.24;39.43;100958.06;5086981;28;20046;-78
2023/01/22 09:57:46;;;;;;;3.58;1.10;;;;;;;7.80;39.09;100955.72;5101674;28;20394;-77
2023/01/22 10:00:39;;;;;;;0.88;0.70;;;;;;;7.93;40.06;100958.50;5095677;28;20050;-77
2023/01/22 10:03:38;;;;;;;1.92;1.40;;;;;;;8.32;39.68;100966.41;5112251;28;20039;-76
2023/01/22 10:06:24;;;;;;;2.38;1.20;;;;;;;8.25;39.31;100956.97;5114663;28;20417;-76
2023/01/22 10:09:14;;;;;;;1.75;1.13;;;;;;;7.92;40.07;100956.09;5113568;28;20517;-77
2023/01/22 10:12:10;;;;;;;2.13;1.30;;;;;;;8.12;38.79;100953.13;5108581;28;20046;-77
2023/01/22 10:14:55;;;;;;;1.13;1.02;;;;;;;8.02;39.58;100955.97;5108071;28;20052;-76
2023/01/22 10:17:41;;;;;;;2.58;1.55;;;;;;;7.99;39.46;100953.81;5100408;28;20422;-77
2023/01/22 10:20:26;;;;;;;2.03;1.33;;;;;;;8.44;39.20;100968.63;5097119;28;20047;-76
2023/01/22 10:23:17;;;;;;;1.60;1.35;;;;;;;8.41;38.56;100961.91;5105203;28;20059;-77
2023/01/22 10:26:35;;;;;;;2.85;1.52;;;;;;;8.58;38.80;100958.69;5092996;28;20414;-76
2023/01/22 10:29:28;;;;;;;2.95;1.45;;;;;;;8.87;38.68;100959.28;5099300;28;20047;-78
2023/01/22 10:32:23;;;;;;;1.60;1.20;;;;;;;9.68;37.97;100954.19;5090136;28;20106;-77
2023/01/22 10:35:10;;;;;;;2.28;1.35;;;;;;;10.06;36.71;100952.81;5094361;28;20047;-78
2023/01/22 10:37:56;;;;;;;1.40;0.80;;;;;;;9.80;37.17;100949.06;5111866;28;20410;-77
2023/01/22 10:40:41;;;;;;;3.10;1.17;;;;;;;9.96;36.94;100958.47;5103950;28;20055;-77
2023/01/22 10:43:37;;;;;;;3.77;1.23;;;;;;;9.28;37.76;100951.19;5096467;28;20047;-77
2023/01/22 10:46:25;;;;;;;2.47;1.77;;;;;;;9.04;37.61;100958.69;5098501;28;20162;-78
2023/01/22 10:49:20;;;;;;;3.17;1.20;;;;;;;8.92;38.16;100948.34;5089217;28;20051;-77
2023/01/22 10:52:34;;;;;;;1.42;1.08;;;;;;;8.59;38.02;100947.53;5085305;28;20059;-78
2023/01/22 10:55:24;;;;;;;2.63;1.30;;;;;;;8.83;38.32;100954.75;5102827;28;20034;-77
2023/01/22 10:58:16;;;;;;;2.05;1.40;;;;;;;8.89;38.73;100957.03;5108612;27;20047;-77
2023/01/22 11:01:20;;;;;;;2.45;1.23;;;;;;;9.43;37.98;100950.91;5108681;28;20054;-77
2023/01/22 11:04:22;;;;;;;1.15;0.88;;;;;;;9.35;36.95;100940.72;5093388;28;20411;-77
2023/01/22 11:07:16;;;;;;;1.70;1.30;;;;;;;9.94;36.09;100941.69;5103457;28;20039;-76
2023/01/22 11:10:16;;;;;;;2.40;1.13;;;;;;;9.86;36.64;100945.13;5096283;28;20054;-77
2023/01/22 11:13:16;;;;;;;5.00;1.52;;;;;;;10.41;36.86;100931.41;5107252;28;20054;-77
2023/01/22 11:16:15;;;;;;;;;;;;;;;10.46;36.57;100945.69;5111445;28;20414;-77
2023/01/22 11:19:12;;;;;;;2.70;1.50;;;;;;;9.99;37.29;100938.88;5112455;28;20380;-77
2023/01/22 11:21:57;;;;;;;2.17;1.23;;;;;;;9.43;37.94;100934.63;5098623;27;20035;-80
2023/01/22 11:24:47;;;;;;;3.17;1.35;;;;;;;9.33;38.29;100929.38;5106486;28;20047;-76
2023/01/22 11:28:03;;;;;;;1.30;1.20;;;;;;;9.03;38.16;100938.09;5088230;28;20051;-77
2023/01/22 11:31:12;;;;;;;2.22;1.75;;;;;;;9.07;38.99;100930.16;5105692;28;20517;-76
2023/01/22 11:34:00;;;;;;;2.30;1.08;;;;;;;8.89;38.56;100931.84;5110033;28;20062;-77
2023/01/22 11:37:02;;;;;;;2.45;1.48;;;;;;;9.04;39.52;100920.72;5104765;28;20050;-77
2023/01/22 11:40:00;;;;;;;2.45;0.90;;;;;;;9.42;38.04;100924.88;5113483;28;20563;-76
2023/01/22 11:42:53;;;;;;;2.70;1.55;;;;;;;9.33;38.32;100920.44;5112781;28;20043;-76
2023/01/22 11:45:57;;;;;;;5.32;1.60;;;;;;;9.63;39.33;100916.31;5101517;28;20060;-77
2023/01/22 11:48:41;;;;;;;3.10;1.80;;;;;;;9.60;38.82;100919.63;5097469;28;20042;-76
2023/01/22 11:51:29;;;;;;;1.77;1.02;;;;;;;9.77;38.20;100917.06;5102365;28;20071;-76
2023/01/22 11:54:48;;;;;;;1.70;1.00;;;;;;;9.61;37.43;100911.16;5112253;28;20054;-77
2023/01/22 11:57:37;;;;;;;1.23;1.13;;;;;;;9.56;37.16;100913.19;5111499;27;20038;-76
2023/01/22 12:00:55;;;;;;;1.95;1.27;;;;;;;9.74;37.43;100913.06;5098582;27;20046;-77
2023/01/22 12:03:58;;;;;;;5.75;1.00;;;;;;;9.71;37.39;100908.22;5112931;27;20513;-76
2023/01/22 12:06:54;;;;;;;1.70;1.10;;;;;;;9.73;36.90;100910.66;5100984;27;20406;-77
2023/01/22 12:10:20;;;;;;;1.35;0.80;;;;;;;9.81;36.89;100896.34;5110722;27;20058;-77
2023/01/22 12:13:33;;;;;;;5.53;0.88;;;;;;;9.78;38.17;100903.19;5093614;28;20536;-76
2023/01/22 12:16:32;;;;;;;1.17;1.00;;;;;;;9.99;36.50;100913.63;5091965;28;20043;-78
2023/01/22 12:19:28;;;;;;;2.10;1.23;;;;;;;9.90;36.18;100896.44;5097814;28;20043;-78
2023/01/22 12:22:32;;;;;;;2.05;1.15;;;;;;;10.50;36.70;100899.66;5099095;28;20050;-77
2023/01/22 12:25:26;;;;;;;1.40;1.00;;;;;;;10.12;36.86;100902.69;5111778;28;20059;-77
2023/01/22 12:28:16;;;;;;;2.72;0.98;;;;;;;10.06;38.70;100900.38;5096960;28;20043;-77
2023/01/22 12:31:27;;;;;;;1.05;0.95;;;;;;;9.76;35.60;100893.75;5079238;28;20395;-77
2023/01/22 12:34:22;;;;;;;0.90;0.80;;;;;;;9.93;37.19;100896.63;5096115;28;20051;-78
2023/01/22 12:37:12;;;;;;;0.50;0.50;;;;;;;9.86;36.01;100893.50;5089471;28;20105;-77
2023/01/22 12:40:33;;;;;;;0.60;0.57;;;;;;;9.64;36.24;100888.84;5091563;28;20039;-76
2023/01/22 12:43:27;;;;;;;0.60;0.60;;;;;;;9.55;36.08;100893.38;5102806;28;20046;-77
2023/01/22 12:46:49;;;;;;;1.70;0.75;;;;;;;9.59;35.69;100891.69;5103235;28;20109;-78
2023/01/22 12:49:45;;;;;;;0.70;0.70;;;;;;;9.71;36.19;100891.94;5104470;28;20086;-78
2023/01/22 12:52:34;;;;;;;0.50;0.50;;;;;;;9.84;37.02;100895.75;5103995;28;20056;-77
2023/01/22 12:55:37;;;;;;;9.27;0.70;;;;;;;9.30;35.48;100891.19;5105606;28;20051;-78
2023/01/22 12:58:23;;;;;;;0.73;0.70;;;;;;;9.34;36.66;100897.63;5106697;28;20047;-77
2023/01/22 13:01:08;;;;;;;0.57;0.50;;;;;;;9.08;35.81;100894.63;5098095;28;20517;-77
2023/01/22 13:03:59;;;;;;;1.25;0.75;;;;;;;9.08;35.92;100881.06;5109929;28;20059;-77
2023/01/22 13:06:45;;;;;;;0.77;0.70;;;;;;;9.25;36.70;100913.78;5108483;28;20109;-75
2023/01/22 13:09:36;;;;;;;0.75;0.65;;;;;;;9.51;36.22;100897.81;5119374;28;20426;-76
2023/01/22 13:12:25;;;;;;;0.98;0.82;;;;;;;10.80;35.88;100908.94;5101295;28;20055;-76
2023/01/22 13:15:19;;;;;;;13.95;1.35;;;;;;;13.30;30.34;100905.28;5098041;28;20441;-75
2023/01/22 13:18:24;;;;;;;2.10;0.98;;;;;;;14.70;27.72;100896.50;5112698;28;20081;-76
2023/01/22 13:21:16;;;;;;;1.30;1.05;;;;;;;15.97;26.25;100913.56;5114120;28;20859;-79
2023/01/22 13:24:11;;;;;;;0.95;0.70;;;;;;;12.26;31.02;100912.88;5102356;28;20537;-76
2023/01/22 13:26:59;;;;;;;4.95;1.20;;;;;;;11.42;32.58;100912.44;5111598;28;20054;-74